Time;durP1;ratioP1;P1;durP2;ratioP2;P2;SDS_P1;SDS_P2;PMS_P1;PMS_P2;Temp;Humidity;BMP_temperature;BMP_pressure;BME280_temperature;BME280_humidity;BME280_pressure;Samples;Min_cycle;Max_cycle;Signal;HPM_P1;HPM_P2
2022/12/07 00:00:55;;;;;;;5.55;1.88;;;5.30;99.90;;;;;;5057091;28;20071;-69
2022/12/07 00:03:21;;;;;;;8.95;1.75;;;5.30;99.90;;;;;;5057204;28;20041;-69
2022/12/07 00:05:46;;;;;;;7.88;2.22;;;5.20;99.90;;;;;;5056514;28;20047;-69
2022/12/07 00:08:12;;;;;;;3.50;1.52;;;5.20;99.90;;;;;;5054662;28;20036;-70
2022/12/07 00:10:38;;;;;;;5.32;1.75;;;5.20;99.90;;;;;;5055900;28;20029;-68
2022/12/07 00:13:04;;;;;;;2.67;1.60;;;5.20;99.90;;;;;;5055559;28;20057;-69
2022/12/07 00:15:30;;;;;;;3.50;1.50;;;5.20;99.90;;;;;;5056444;28;20051;-68
2022/12/07 00:17:55;;;;;;;11.75;2.05;;;5.10;99.90;;;;;;5057036;28;20045;-68
2022/12/07 00:20:21;;;;;;;7.68;1.60;;;5.10;99.90;;;;;;5056984;28;20410;-69
2022/12/07 00:22:46;;;;;;;9.43;2.20;;;5.00;99.90;;;;;;5057125;28;20393;-70
2022/12/07 00:25:12;;;;;;;6.55;2.10;;;5.10;99.90;;;;;;5056070;28;20472;-69
2022/12/07 00:27:37;;;;;;;5.88;3.28;;;5.00;99.90;;;;;;5056988;28;20389;-68
2022/12/07 00:30:03;;;;;;;11.95;5.65;;;5.00;99.90;;;;;;5056914;28;20095;-68
2022/12/07 00:32:29;;;;;;;10.95;5.75;;;5.00;99.90;;;;;;5056402;28;20445;-69
2022/12/07 00:34:55;;;;;;;13.40;6.10;;;5.00;99.90;;;;;;5052033;28;20037;-69
2022/12/07 00:37:20;;;;;;;10.93;4.75;;;5.00;99.90;;;;;;5053696;28;20409;-69
2022/12/07 00:39:46;;;;;;;8.75;5.18;;;5.00;99.90;;;;;;5053720;28;20413;-68
2022/12/07 00:42:11;;;;;;;15.48;5.10;;;5.00;99.90;;;;;;5053414;28;20033;-69
2022/12/07 00:44:37;;;;;;;8.45;4.97;;;5.00;99.90;;;;;;5052889;28;20041;-69
2022/12/07 00:47:03;;;;;;;12.52;4.80;;;4.90;99.90;;;;;;5053329;28;20037;-69
2022/12/07 00:49:28;;;;;;;8.77;4.72;;;5.00;99.90;;;;;;5053460;28;20172;-68
2022/12/07 00:51:54;;;;;;;11.10;4.50;;;5.00;99.90;;;;;;5053442;28;20124;-69
2022/12/07 00:54:19;;;;;;;10.02;3.97;;;5.00;99.90;;;;;;5052567;28;20040;-69
2022/12/07 00:56:45;;;;;;;7.07;3.50;;;5.00;99.90;;;;;;5052944;28;20045;-69
2022/12/07 00:59:16;;;;;;;7.20;3.22;;;5.00;99.90;;;;;;5053240;28;20048;-68
2022/12/07 01:01:42;;;;;;;5.18;3.03;;;4.90;99.90;;;;;;5053425;28;20041;-68
2022/12/07 01:04:07;;;;;;;5.15;2.33;;;4.90;99.90;;;;;;5052551;28;20037;-69
2022/12/07 01:06:33;;;;;;;6.50;2.80;;;4.90;99.90;;;;;;5052574;28;20056;-69
2022/12/07 01:08:59;;;;;;;6.93;2.28;;;4.90;99.90;;;;;;5053103;28;20079;-69
2022/12/07 01:11:29;;;;;;;8.88;2.20;;;4.90;99.90;;;;;;5052859;28;20094;-69
2022/12/07 01:13:56;;;;;;;3.92;2.42;;;4.90;99.90;;;;;;5052574;28;20059;-68
2022/12/07 01:16:24;;;;;;;9.50;2.65;;;4.90;99.90;;;;;;5053102;28;20045;-69
2022/12/07 01:18:53;;;;;;;9.35;2.75;;;4.90;99.90;;;;;;5053098;28;20448;-69
2022/12/07 01:21:27;;;;;;;5.93;3.38;;;4.90;99.90;;;;;;5053016;28;20037;-68
2022/12/07 01:23:53;;;;;;;6.13;4.00;;;4.90;99.90;;;;;;5051862;28;20148;-68
2022/12/07 01:26:23;;;;;;;10.00;3.88;;;4.90;99.90;;;;;;5052916;28;20127;-69
2022/12/07 01:28:49;;;;;;;8.13;3.90;;;4.90;99.90;;;;;;5052745;28;20041;-69
2022/12/07 01:31:18;;;;;;;20.10;4.00;;;4.90;99.90;;;;;;5052912;28;20116;-68
2022/12/07 01:33:46;;;;;;;15.30;3.55;;;4.90;99.90;;;;;;5052098;28;20033;-69
2022/12/07 01:36:22;;;;;;;5.93;3.08;;;4.90;99.90;;;;;;5052246;28;20560;-70
2022/12/07 01:38:51;;;;;;;7.28;2.58;;;4.90;99.90;;;;;;5052595;28;20041;-68
2022/12/07 01:41:16;;;;;;;6.07;2.83;;;5.00;99.90;;;;;;5052315;28;20555;-69
2022/12/07 01:44:13;;;;;;;5.55;2.47;;;4.90;99.90;;;;;;5051836;28;20041;-70
2022/12/07 01:46:40;;;;;;;6.95;2.38;;;4.90;99.90;;;;;;5052449;28;20045;-68
2022/12/07 01:49:10;;;;;;;11.02;2.70;;;4.90;99.90;;;;;;5052455;28;20040;-68
2022/12/07 01:51:38;;;;;;;4.68;2.08;;;4.90;99.90;;;;;;5052464;28;20041;-68
2022/12/07 01:54:04;;;;;;;4.45;2.17;;;4.90;99.90;;;;;;5051531;28;20400;-68
2022/12/07 01:56:30;;;;;;;6.63;3.10;;;4.90;99.90;;;;;;5052339;28;20037;-68
2022/12/07 01:58:57;;;;;;;10.55;2.65;;;4.90;99.90;;;;;;5050146;28;20397;-68
2022/12/07 02:01:22;;;;;;;5.70;1.80;;;4.90;99.90;;;;;;5052159;28;20052;-70
2022/12/07 02:03:49;;;;;;;7.93;2.20;;;4.90;99.90;;;;;;5051200;28;20037;-68
2022/12/07 02:06:20;;;;;;;7.07;2.10;;;4.90;99.90;;;;;;5052025;28;20480;-68
2022/12/07 02:08:46;;;;;;;6.95;1.70;;;4.80;99.90;;;;;;5052230;28;20053;-68
2022/12/07 02:11:12;;;;;;;4.47;1.90;;;4.90;99.90;;;;;;5052029;28;20037;-68
2022/12/07 02:13:40;;;;;;;7.43;1.83;;;4.80;99.90;;;;;;5051967;28;20115;-69
2022/12/07 02:16:43;;;;;;;2.95;1.30;;;4.90;99.90;;;;;;5051361;28;20049;-68
2022/12/07 02:19:33;;;;;;;5.13;1.57;;;4.90;99.90;;;;;;5051892;28;20033;-69
2022/12/07 02:22:18;;;;;;;5.40;1.60;;;4.90;99.90;;;;;;5051630;28;20040;-68
2022/12/07 02:25:08;;;;;;;12.15;1.80;;;4.90;99.90;;;;;;5051135;28;20037;-68
2022/12/07 02:27:37;;;;;;;3.72;1.40;;;5.00;99.90;;;;;;5051410;28;20072;-68
2022/12/07 02:30:04;;;;;;;4.88;1.40;;;5.00;99.90;;;;;;5051724;28;20048;-68
2022/12/07 02:32:54;;;;;;;6.03;1.90;;;4.90;99.90;;;;;;5051334;28;20497;-69
2022/12/07 02:35:32;;;;;;;7.97;2.10;;;4.90;99.90;;;;;;5050825;28;20108;-68
2022/12/07 02:38:18;;;;;;;8.55;1.38;;;4.90;99.90;;;;;;5051386;28;20044;-68
2022/12/07 02:40:50;;;;;;;3.10;1.40;;;4.90;99.90;;;;;;5051359;28;20033;-69
2022/12/07 02:43:24;;;;;;;7.90;2.15;;;4.80;99.90;;;;;;5051376;28;20044;-69
2022/12/07 02:45:52;;;;;;;8.30;1.92;;;4.80;99.90;;;;;;5050845;28;20092;-69
2022/12/07 02:48:20;;;;;;;6.85;1.58;;;4.70;99.90;;;;;;5033495;28;20397;-69
2022/12/07 02:50:50;;;;;;;2.85;1.50;;;4.70;99.90;;;;;;5051438;28;20052;-69
2022/12/07 02:53:48;;;;;;;3.40;1.80;;;4.70;99.90;;;;;;5051684;28;20048;-69
2022/12/07 02:56:39;;;;;;;3.53;1.85;;;4.70;99.90;;;;;;5038189;28;20056;-69
2022/12/07 02:59:47;;;;;;;8.88;1.70;;;4.70;99.90;;;;;;5051063;28;20124;-69
2022/12/07 03:02:44;;;;;;;7.32;2.10;;;4.60;99.90;;;;;;5044599;28;20064;-68
2022/12/07 03:05:48;;;;;;;6.05;2.17;;;4.60;99.90;;;;;;5046778;28;20045;-70
2022/12/07 03:08:44;;;;;;;3.92;1.60;;;4.60;99.90;;;;;;5028397;28;20116;-69
2022/12/07 03:11:11;;;;;;;7.63;1.85;;;4.60;99.90;;;;;;5028487;28;20116;-68
2022/12/07 03:14:00;;;;;;;5.60;1.83;;;4.60;99.90;;;;;;5043417;28;20045;-69
2022/12/07 03:16:42;;;;;;;6.85;1.90;;;4.60;99.90;;;;;;5050619;28;20146;-69
2022/12/07 03:19:13;;;;;;;8.32;2.15;;;4.60;99.90;;;;;;5050954;28;20045;-69
2022/12/07 03:21:42;;;;;;;1.30;1.30;;;4.60;99.90;;;;;;5051113;28;20044;-68
2022/12/07 03:24:25;;;;;;;4.20;1.90;;;4.60;99.90;;;;;;5050363;28;20036;-69
2022/12/07 03:26:52;;;;;;;;;;;4.60;99.90;;;;;;5062999;28;20521;-68
2022/12/07 03:29:28;;;;;;;3.85;1.73;;;4.70;99.90;;;;;;5071044;28;19927;-69
2022/12/07 03:32:06;;;;;;;4.55;1.52;;;4.70;99.90;;;;;;5071067;28;20045;-68
2022/12/07 03:34:52;;;;;;;5.07;1.67;;;4.70;99.90;;;;;;5069935;28;20045;-69
2022/12/07 03:37:26;;;;;;;2.55;1.52;;;4.70;99.90;;;;;;5070754;28;20053;-69
2022/12/07 03:40:07;;;;;;;2.80;1.60;;;4.60;99.90;;;;;;5071072;28;20044;-69
2022/12/07 03:42:33;;;;;;;4.53;1.33;;;4.60;99.90;;;;;;5070676;28;20033;-70
2022/12/07 03:45:00;;;;;;;7.93;1.88;;;4.70;99.90;;;;;;5070103;28;20047;-70
2022/12/07 03:47:41;;;;;;;1.85;1.50;;;4.70;99.90;;;;;;5070569;28;20412;-69
2022/12/07 03:50:28;;;;;;;3.20;1.40;;;4.70;99.90;;;;;;5069540;28;20062;-69
2022/12/07 03:52:59;;;;;;;3.65;1.60;;;4.60;99.90;;;;;;5070598;28;20066;-69
2022/12/07 03:55:30;;;;;;;3.00;1.30;;;4.60;99.90;;;;;;5069875;28;20056;-68
2022/12/07 03:58:02;;;;;;;2.78;1.40;;;4.60;99.90;;;;;;5070471;28;20409;-69
2022/12/07 04:00:28;;;;;;;7.22;2.08;;;4.60;99.90;;;;;;5052433;28;20048;-69
2022/12/07 04:02:54;;;;;;;6.25;1.20;;;4.60;99.90;;;;;;5070241;28;20497;-69
2022/12/07 04:05:20;;;;;;;2.33;1.17;;;4.60;99.90;;;;;;5069783;28;20139;-69
2022/12/07 04:07:45;;;;;;;2.30;1.30;;;4.60;99.90;;;;;;5071518;28;20120;-69
2022/12/07 04:10:11;;;;;;;3.58;1.23;;;4.60;99.90;;;;;;5074076;28;20115;-69
2022/12/07 04:12:37;;;;;;;4.75;1.38;;;4.60;99.90;;;;;;5074032;28;20516;-70
2022/12/07 04:15:03;;;;;;;6.88;2.00;;;4.60;99.90;;;;;;5073167;28;20440;-69
2022/12/07 04:17:29;;;;;;;6.50;1.35;;;4.50;99.90;;;;;;5074075;28;20041;-70
2022/12/07 04:19:55;;;;;;;9.45;1.58;;;4.50;99.90;;;;;;5074061;28;20040;-69
2022/12/07 04:22:20;;;;;;;5.10;1.98;;;4.50;99.90;;;;;;5074181;28;20489;-68
2022/12/07 04:24:46;;;;;;;6.50;1.60;;;4.50;99.90;;;;;;5073122;28;20044;-69
2022/12/07 04:27:11;;;;;;;4.00;1.40;;;4.50;99.90;;;;;;5072579;28;20095;-70
2022/12/07 04:29:37;;;;;;;5.38;1.55;;;4.50;99.90;;;;;;5074067;28;20040;-68
2022/12/07 04:32:02;;;;;;;7.65;1.60;;;4.40;99.90;;;;;;5073946;28;20071;-69
2022/12/07 04:34:28;;;;;;;7.78;1.67;;;4.40;99.90;;;;;;5073282;28;20044;-68
2022/12/07 04:36:54;;;;;;;5.05;1.50;;;4.50;99.90;;;;;;5073906;28;20115;-69
2022/12/07 04:39:23;;;;;;;4.10;1.73;;;4.50;99.90;;;;;;5055815;28;20090;-70
2022/12/07 04:41:49;;;;;;;4.75;1.70;;;4.40;99.90;;;;;;5073499;28;20037;-69
2022/12/07 04:44:15;;;;;;;6.85;2.13;;;4.40;99.90;;;;;;5073035;28;20173;-69
2022/12/07 04:46:42;;;;;;;6.20;1.50;;;4.30;99.90;;;;;;5073584;28;20115;-68
2022/12/07 04:49:08;;;;;;;9.63;1.40;;;4.30;99.90;;;;;;5073636;28;20036;-69
2022/12/07 04:51:34;;;;;;;6.63;1.65;;;4.30;99.90;;;;;;5073357;28;20557;-69
2022/12/07 04:53:59;;;;;;;5.43;1.33;;;4.30;99.90;;;;;;5072872;28;20233;-68
2022/12/07 04:56:25;;;;;;;4.90;1.73;;;4.30;99.90;;;;;;5073277;28;20067;-68
2022/12/07 04:58:52;;;;;;;6.00;1.30;;;4.20;99.90;;;;;;5073312;28;20107;-69
2022/12/07 05:01:18;;;;;;;3.55;1.33;;;4.30;99.90;;;;;;5071861;28;20652;-69
2022/12/07 05:03:44;;;;;;;6.78;1.52;;;4.20;99.90;;;;;;5072925;28;20142;-68
2022/12/07 05:06:10;;;;;;;5.15;1.50;;;4.20;99.90;;;;;;5073081;28;20047;-68
2022/12/07 05:08:36;;;;;;;1.80;1.10;;;4.20;99.90;;;;;;5073265;28;20047;-68
2022/12/07 05:11:03;;;;;;;2.15;1.23;;;4.30;99.90;;;;;;5073245;28;20404;-69
2022/12/07 05:13:29;;;;;;;7.47;1.50;;;4.30;99.90;;;;;;5073150;28;20040;-69
2022/12/07 05:15:54;;;;;;;4.80;1.35;;;4.30;99.90;;;;;;5072370;28;20527;-68
2022/12/07 05:18:20;;;;;;;4.55;1.50;;;4.30;99.90;;;;;;5073022;28;20041;-69
2022/12/07 05:20:45;;;;;;;6.60;1.58;;;4.30;99.90;;;;;;5072434;28;20037;-68
2022/12/07 05:23:12;;;;;;;3.50;1.20;;;4.30;99.90;;;;;;5072488;28;20097;-68
2022/12/07 05:25:38;;;;;;;2.50;1.38;;;4.20;99.90;;;;;;5072153;28;20032;-68
2022/12/07 05:28:04;;;;;;;5.07;1.80;;;4.20;99.90;;;;;;5072897;28;20050;-69
2022/12/07 05:30:30;;;;;;;4.25;1.52;;;4.20;99.90;;;;;;5072592;28;20523;-69
2022/12/07 05:32:56;;;;;;;5.32;1.52;;;4.20;99.90;;;;;;5072709;28;20083;-69
2022/12/07 05:35:21;;;;;;;2.80;1.52;;;4.20;99.90;;;;;;5071718;28;20076;-69
2022/12/07 05:37:47;;;;;;;5.18;1.30;;;4.20;99.90;;;;;;5072553;28;20032;-68
2022/12/07 05:40:13;;;;;;;11.98;1.60;;;4.20;99.90;;;;;;5072336;28;20037;-68
2022/12/07 05:42:39;;;;;;;8.10;1.45;;;4.20;99.90;;;;;;5072587;28;20044;-69
2022/12/07 05:45:06;;;;;;;8.98;1.75;;;4.20;99.90;;;;;;5071625;28;20037;-69
2022/12/07 05:47:32;;;;;;;3.92;1.00;;;4.20;99.90;;;;;;5072159;28;20123;-69
2022/12/07 05:49:57;;;;;;;4.80;1.85;;;4.10;99.90;;;;;;5072481;28;20083;-69
2022/12/07 05:52:23;;;;;;;2.10;0.93;;;4.20;99.90;;;;;;5072466;28;20068;-70
2022/12/07 05:54:49;;;;;;;5.53;1.20;;;4.20;99.90;;;;;;5071265;28;20045;-69
2022/12/07 05:57:14;;;;;;;4.25;1.38;;;4.20;99.90;;;;;;5072220;28;20577;-69
2022/12/07 05:59:40;;;;;;;5.07;1.17;;;4.20;99.90;;;;;;5071956;28;20489;-69
2022/12/07 06:02:09;;;;;;;3.88;1.05;;;4.10;99.90;;;;;;5072174;28;20158;-69
2022/12/07 06:04:37;;;;;;;2.13;1.38;;;4.00;99.90;;;;;;5053300;28;20048;-69
2022/12/07 06:07:04;;;;;;;3.22;1.42;;;3.90;99.90;;;;;;5071446;28;20081;-69
2022/12/07 06:09:30;;;;;;;7.57;1.60;;;3.90;99.90;;;;;;5072152;28;20053;-69
2022/12/07 06:14:40;;;;;;;6.22;1.30;;;4.00;99.90;;;;;;5071283;28;20048;-69
2022/12/07 06:17:06;;;;;;;7.30;1.00;;;3.90;99.90;;;;;;5071617;28;20032;-68
2022/12/07 06:19:32;;;;;;;4.80;1.30;;;3.90;99.90;;;;;;5071944;28;20473;-70
2022/12/07 06:21:58;;;;;;;4.63;1.95;;;3.90;99.90;;;;;;5071509;28;20051;-69
2022/12/07 06:24:24;;;;;;;4.10;1.23;;;3.80;99.90;;;;;;5070966;28;20113;-70
2022/12/07 06:26:50;;;;;;;3.83;1.42;;;3.80;99.90;;;;;;5071644;28;20545;-69
2022/12/07 06:29:17;;;;;;;4.15;1.50;;;3.80;99.90;;;;;;5071674;28;20603;-69
2022/12/07 06:31:43;;;;;;;4.22;1.40;;;3.80;99.90;;;;;;5070384;28;20041;-69
2022/12/07 06:34:14;;;;;;;3.30;1.27;;;3.70;99.90;;;;;;5070499;28;20044;-69
2022/12/07 06:36:39;;;;;;;4.53;1.27;;;3.70;99.90;;;;;;5071377;28;20052;-68
2022/12/07 06:39:06;;;;;;;3.42;1.23;;;3.70;99.90;;;;;;5071187;28;20044;-68
2022/12/07 06:41:32;;;;;;;6.07;2.03;;;3.80;99.90;;;;;;5071488;28;20390;-68
2022/12/07 06:43:57;;;;;;;3.38;1.50;;;3.80;99.90;;;;;;5070587;28;20039;-69
2022/12/07 06:46:23;;;;;;;4.60;1.65;;;3.80;99.90;;;;;;5053145;28;20123;-69
2022/12/07 06:48:49;;;;;;;3.50;1.90;;;3.80;99.90;;;;;;5071112;28;20466;-68
2022/12/07 06:51:16;;;;;;;8.30;2.47;;;3.90;99.90;;;;;;5071004;28;20051;-68
2022/12/07 06:53:42;;;;;;;10.38;2.40;;;3.90;99.90;;;;;;5070717;28;20123;-68
2022/12/07 06:56:07;;;;;;;9.32;2.22;;;3.90;99.90;;;;;;5070857;28;20120;-68
2022/12/07 06:58:33;;;;;;;11.15;1.90;;;3.90;99.90;;;;;;5071106;28;20035;-68
2022/12/07 07:00:59;;;;;;;2.10;1.70;;;4.00;99.90;;;;;;5071008;28;20093;-70
2022/12/07 07:03:24;;;;;;;1.90;1.60;;;4.00;99.90;;;;;;5071192;28;20097;-69
2022/12/07 07:05:50;;;;;;;3.67;1.40;;;4.00;99.90;;;;;;5070306;28;20484;-68
2022/12/07 07:08:15;;;;;;;4.15;1.52;;;4.00;99.90;;;;;;5071055;28;20036;-69
2022/12/07 07:10:41;;;;;;;4.55;1.38;;;4.00;99.90;;;;;;5071102;28;20055;-69
2022/12/07 07:13:07;;;;;;;5.72;1.35;;;4.00;99.90;;;;;;5071056;28;20037;-69
2022/12/07 07:15:33;;;;;;;6.00;1.17;;;4.00;99.90;;;;;;5070206;28;20052;-69
2022/12/07 07:17:59;;;;;;;14.75;3.40;;;4.00;99.90;;;;;;5071022;28;20040;-70
2022/12/07 07:20:25;;;;;;;11.20;5.05;;;4.00;99.90;;;;;;5068271;28;20040;-69
2022/12/07 07:22:53;;;;;;;6.40;2.78;;;4.00;99.90;;;;;;5060373;28;20716;-68
2022/12/07 07:25:19;;;;;;;8.15;3.72;;;4.00;99.90;;;;;;5060549;28;20119;-68
2022/12/07 07:27:44;;;;;;;7.72;3.40;;;4.00;99.90;;;;;;5061266;28;20128;-68
2022/12/07 07:30:11;;;;;;;10.10;3.33;;;4.10;99.90;;;;;;5060387;28;20409;-69
2022/12/07 07:32:36;;;;;;;9.73;4.35;;;4.00;99.90;;;;;;5059699;28;20047;-68
2022/12/07 07:35:02;;;;;;;7.68;3.33;;;4.10;99.90;;;;;;5061353;28;20036;-68
2022/12/07 07:37:28;;;;;;;5.97;3.20;;;4.10;99.90;;;;;;5052805;28;20099;-68
2022/12/07 07:39:53;;;;;;;11.00;3.42;;;4.10;99.90;;;;;;5043805;28;20406;-69
2022/12/07 07:42:19;;;;;;;10.23;2.97;;;4.10;99.90;;;;;;5049208;28;20513;-69
2022/12/07 07:44:45;;;;;;;9.93;3.30;;;4.20;99.90;;;;;;5052038;28;20175;-68
2022/12/07 07:47:10;;;;;;;12.70;6.85;;;4.20;99.90;;;;;;5054587;28;20063;-68
2022/12/07 07:49:36;;;;;;;10.35;6.10;;;4.20;99.90;;;;;;5054523;28;20045;-69
2022/12/07 07:52:02;;;;;;;6.28;3.50;;;4.20;99.90;;;;;;5054666;28;20098;-70
2022/12/07 07:54:27;;;;;;;4.63;1.92;;;4.30;99.90;;;;;;5054040;28;20053;-70
2022/12/07 07:56:53;;;;;;;4.70;1.85;;;4.20;99.90;;;;;;5054529;28;20076;-68
2022/12/07 07:59:18;;;;;;;4.53;1.73;;;4.30;99.90;;;;;;5052452;28;20390;-68
2022/12/07 08:01:44;;;;;;;3.75;1.80;;;4.20;99.90;;;;;;5054669;28;20033;-68
2022/12/07 08:04:10;;;;;;;8.63;2.67;;;4.20;99.90;;;;;;5053466;28;20086;-69
2022/12/07 08:06:35;;;;;;;11.80;2.65;;;4.20;99.90;;;;;;5054475;28;20075;-69
2022/12/07 08:09:01;;;;;;;6.18;2.40;;;4.10;99.90;;;;;;5054326;28;20101;-69
2022/12/07 08:11:27;;;;;;;5.13;1.58;;;4.20;99.90;;;;;;5054265;28;20052;-69
2022/12/07 08:13:53;;;;;;;7.13;2.03;;;4.20;99.90;;;;;;5053302;28;20041;-69
2022/12/07 08:16:18;;;;;;;8.98;2.03;;;4.20;99.90;;;;;;5053997;28;20409;-69
2022/12/07 08:18:44;;;;;;;3.22;1.33;;;4.20;99.90;;;;;;5036010;28;20167;-68
2022/12/07 08:21:12;;;;;;;6.38;1.67;;;4.20;99.90;;;;;;5054021;28;20072;-68
2022/12/07 08:23:38;;;;;;;3.38;1.55;;;4.20;99.90;;;;;;5054037;28;20389;-68
2022/12/07 08:26:05;;;;;;;12.43;2.20;;;4.20;99.90;;;;;;5053217;28;20041;-68
2022/12/07 08:28:32;;;;;;;4.05;1.60;;;4.20;99.90;;;;;;5054159;28;20048;-69
2022/12/07 08:31:10;;;;;;;6.95;1.75;;;4.30;99.90;;;;;;5054587;28;20574;-68
2022/12/07 08:33:36;;;;;;;10.43;2.53;;;4.30;99.90;;;;;;5062148;28;20051;-68
2022/12/07 08:36:03;;;;;;;24.40;7.20;;;4.30;99.90;;;;;;5062871;28;20044;-68
2022/12/07 08:38:29;;;;;;;11.43;4.45;;;4.30;99.90;;;;;;5064286;28;20036;-69
2022/12/07 08:40:56;;;;;;;8.57;2.42;;;4.30;99.90;;;;;;5062251;28;20405;-70
2022/12/07 08:43:22;;;;;;;13.10;4.95;;;4.30;99.90;;;;;;5063245;28;20037;-69
2022/12/07 08:46:06;;;;;;;11.75;4.53;;;4.30;99.90;;;;;;5062785;28;20052;-69
2022/12/07 08:48:35;;;;;;;10.52;3.83;;;4.40;99.90;;;;;;5063150;28;20557;-69
2022/12/07 08:51:02;;;;;;;13.15;3.60;;;4.40;99.90;;;;;;5063032;28;20047;-70
2022/12/07 08:53:29;;;;;;;15.27;5.10;;;4.40;99.90;;;;;;5063495;28;20047;-68
2022/12/07 08:55:56;;;;;;;9.57;3.42;;;4.40;99.90;;;;;;5062747;28;20055;-69
2022/12/07 08:58:22;;;;;;;20.75;5.25;;;4.30;99.90;;;;;;5073364;28;20120;-70
2022/12/07 09:00:47;;;;;;;13.55;4.80;;;4.30;99.90;;;;;;5073157;28;20115;-69
2022/12/07 09:03:13;;;;;;;20.17;4.10;;;4.40;99.90;;;;;;5073452;28;20048;-69
2022/12/07 09:05:38;;;;;;;12.40;3.00;;;4.30;99.90;;;;;;5072505;28;20036;-67
2022/12/07 09:08:05;;;;;;;7.70;3.00;;;4.40;99.90;;;;;;5073179;28;20144;-68
2022/12/07 09:10:30;;;;;;;7.15;1.73;;;4.50;99.90;;;;;;5073055;28;20063;-68
2022/12/07 09:13:00;;;;;;;4.07;1.40;;;4.60;99.90;;;;;;5072880;28;20041;-70
2022/12/07 09:15:27;;;;;;;25.50;6.05;;;4.60;99.90;;;;;;5072302;28;20401;-67
2022/12/07 09:17:52;;;;;;;14.35;4.40;;;4.60;99.90;;;;;;5066735;28;20171;-69
2022/12/07 09:20:18;;;;;;;5.25;2.92;;;4.60;99.90;;;;;;5066436;28;20116;-68
2022/12/07 09:22:43;;;;;;;5.45;2.85;;;4.60;99.90;;;;;;5053104;28;20409;-69
2022/12/07 09:25:09;;;;;;;5.90;2.00;;;4.60;99.90;;;;;;5051384;28;20041;-68
2022/12/07 09:27:35;;;;;;;7.28;1.90;;;4.60;99.90;;;;;;5054616;28;20056;-69
2022/12/07 09:30:01;;;;;;;5.85;1.90;;;4.60;99.90;;;;;;5051969;28;20514;-69
2022/12/07 09:32:26;;;;;;;5.80;1.90;;;4.60;99.90;;;;;;5052143;28;20120;-69
2022/12/07 09:34:52;;;;;;;6.50;2.25;;;4.60;99.90;;;;;;5051237;28;20053;-71
2022/12/07 09:37:17;;;;;;;7.30;2.17;;;4.60;99.90;;;;;;5051644;28;20041;-69
2022/12/07 09:39:43;;;;;;;9.02;1.95;;;4.60;99.90;;;;;;5051675;28;20033;-69
2022/12/07 09:42:12;;;;;;;7.13;1.60;;;4.60;99.90;;;;;;5051571;28;20044;-68
2022/12/07 09:44:40;;;;;;;8.10;2.13;;;4.60;99.90;;;;;;5058661;28;20075;-69
2022/12/07 09:47:05;;;;;;;5.53;1.92;;;4.60;99.90;;;;;;5071956;28;20048;-68
2022/12/07 09:49:32;;;;;;;7.40;1.65;;;4.60;99.90;;;;;;5071094;28;20032;-69
2022/12/07 09:52:22;;;;;;;7.22;1.40;;;4.60;99.90;;;;;;5071997;28;20444;-68
2022/12/07 09:54:50;;;;;;;3.90;1.50;;;4.70;99.90;;;;;;5063172;28;20048;-68
2022/12/07 09:57:16;;;;;;;5.30;2.10;;;4.70;99.90;;;;;;5071975;28;20044;-68
2022/12/07 09:59:42;;;;;;;11.10;2.97;;;4.80;99.90;;;;;;5071128;28;20064;-69
2022/12/07 10:02:34;;;;;;;10.93;3.00;;;4.90;99.90;;;;;;5071199;28;20137;-69
2022/12/07 10:05:00;;;;;;;8.03;2.90;;;4.90;99.90;;;;;;5069040;28;20040;-70
2022/12/07 10:07:26;;;;;;;9.15;2.25;;;5.00;99.90;;;;;;5071306;28;20048;-67
2022/12/07 10:09:51;;;;;;;10.60;2.13;;;5.00;99.90;;;;;;5069803;28;20074;-67
2022/12/07 10:12:17;;;;;;;9.70;2.35;;;5.10;99.90;;;;;;5071335;28;20106;-68
2022/12/07 10:15:05;;;;;;;6.97;2.65;;;5.10;99.90;;;;;;5070796;28;20378;-70
2022/12/07 10:17:35;;;;;;;10.88;2.67;;;5.10;99.90;;;;;;5071496;28;20044;-69
2022/12/07 10:20:27;;;;;;;2.15;1.70;;;5.10;99.90;;;;;;5071104;28;20032;-70
2022/12/07 10:22:58;;;;;;;5.13;1.77;;;5.10;99.90;;;;;;5068516;28;20040;-70
2022/12/07 10:25:36;;;;;;;5.47;2.05;;;5.10;99.90;;;;;;5070791;28;20115;-68
2022/12/07 10:28:08;;;;;;;6.95;1.58;;;5.10;99.90;;;;;;5070986;28;20493;-69
2022/12/07 10:30:56;;;;;;;7.32;1.92;;;5.10;99.90;;;;;;5071453;28;20576;-67
2022/12/07 10:33:47;;;;;;;10.07;1.80;;;5.10;99.90;;;;;;5071237;28;20036;-69
2022/12/07 10:36:35;;;;;;;6.18;2.13;;;5.10;99.90;;;;;;5071074;28;20048;-69
2022/12/07 10:39:13;;;;;;;7.68;1.98;;;5.20;99.90;;;;;;5070928;28;20040;-68
2022/12/07 10:42:03;;;;;;;8.75;1.55;;;5.20;99.90;;;;;;5071101;28;20511;-68
2022/12/07 10:44:31;;;;;;;16.15;1.98;;;5.20;99.90;;;;;;5070101;28;20081;-68
2022/12/07 10:47:13;;;;;;;6.93;1.67;;;5.30;99.90;;;;;;5070685;28;20501;-68
2022/12/07 10:49:52;;;;;;;4.82;1.40;;;5.30;99.90;;;;;;5070892;28;20558;-68
2022/12/07 10:52:29;;;;;;;7.03;1.95;;;5.30;99.90;;;;;;5071131;28;20094;-69
2022/12/07 10:55:24;;;;;;;6.78;1.50;;;5.30;99.90;;;;;;5069090;28;20449;-68
2022/12/07 10:58:01;;;;;;;6.97;1.67;;;5.30;99.90;;;;;;5070970;28;20109;-69
2022/12/07 11:00:36;;;;;;;7.10;1.88;;;5.30;99.90;;;;;;5070867;28;20040;-68
2022/12/07 11:03:27;;;;;;;10.05;1.60;;;5.30;99.90;;;;;;5070868;28;20032;-69
2022/12/07 11:06:05;;;;;;;6.78;1.60;;;5.40;99.90;;;;;;5068217;28;20037;-69
2022/12/07 11:08:54;;;;;;;6.78;1.73;;;5.30;99.90;;;;;;5070993;28;20109;-69
2022/12/07 11:11:45;;;;;;;4.47;1.85;;;5.40;99.90;;;;;;5070882;28;20107;-69
2022/12/07 11:14:20;;;;;;;8.50;2.17;;;5.40;99.90;;;;;;5070295;28;20044;-68
2022/12/07 11:16:59;;;;;;;4.82;1.95;;;5.50;99.90;;;;;;5070406;28;20095;-70
2022/12/07 11:19:50;;;;;;;6.65;1.90;;;5.50;99.90;;;;;;5070347;28;20062;-70
2022/12/07 11:22:29;;;;;;;4.95;1.77;;;5.60;99.90;;;;;;5070343;28;20596;-70
2022/12/07 11:25:16;;;;;;;9.10;1.90;;;5.60;99.90;;;;;;5056129;28;20037;-69
2022/12/07 11:28:17;;;;;;;6.72;1.90;;;5.60;99.90;;;;;;5069540;28;20075;-69
2022/12/07 11:30:55;;;;;;;8.15;1.80;;;5.60;99.90;;;;;;5037249;28;20038;-69
2022/12/07 11:33:37;;;;;;;5.35;1.90;;;5.60;99.90;;;;;;5050238;28;20539;-68
2022/12/07 11:36:42;;;;;;;16.55;5.15;;;5.70;99.90;;;;;;5049695;28;20086;-68
2022/12/07 11:39:32;;;;;;;9.77;4.10;;;5.70;99.90;;;;;;5050264;28;20124;-67
2022/12/07 11:42:06;;;;;;;7.28;2.30;;;5.70;99.90;;;;;;5055107;28;20048;-68
2022/12/07 11:44:35;;;;;;;8.63;2.58;;;5.70;99.90;;;;;;5068567;28;20029;-68
2022/12/07 11:47:09;;;;;;;4.50;2.22;;;5.70;99.90;;;;;;5070091;28;20078;-68
2022/12/07 11:49:40;;;;;;;5.30;1.85;;;5.70;99.90;;;;;;5068227;28;20122;-70
2022/12/07 11:52:32;;;;;;;7.57;2.60;;;5.60;99.90;;;;;;5070386;28;20045;-69
2022/12/07 11:54:59;;;;;;;8.60;2.38;;;5.70;99.90;;;;;;5065070;28;20060;-69
2022/12/07 11:57:37;;;;;;;4.35;2.08;;;5.80;99.90;;;;;;5070238;28;20049;-69
2022/12/07 12:00:09;;;;;;;5.70;2.30;;;5.90;99.90;;;;;;5069846;28;20083;-69
2022/12/07 12:03:09;;;;;;;11.77;1.92;;;5.90;99.90;;;;;;5070347;28;20400;-68
2022/12/07 12:05:35;;;;;;;7.43;2.33;;;5.90;99.90;;;;;;5065058;28;20194;-71
2022/12/07 12:08:32;;;;;;;9.00;2.42;;;6.10;99.90;;;;;;5069936;28;20537;-67
2022/12/07 12:11:14;;;;;;;4.43;2.13;;;6.30;99.90;;;;;;5068115;28;20052;-69
2022/12/07 12:13:58;;;;;;;6.03;2.40;;;6.20;99.90;;;;;;5070061;28;20102;-69
2022/12/07 12:16:48;;;;;;;3.67;1.58;;;6.30;99.90;;;;;;5070128;28;20045;-69
2022/12/07 12:19:19;;;;;;;9.38;2.03;;;6.30;99.90;;;;;;5070017;28;20036;-69
2022/12/07 12:21:47;;;;;;;4.00;1.58;;;6.40;99.90;;;;;;5052336;28;20068;-70
2022/12/07 12:24:22;;;;;;;4.47;1.45;;;6.40;99.90;;;;;;5069366;28;20047;-69
2022/12/07 12:27:01;;;;;;;7.43;1.60;;;6.40;99.90;;;;;;5069052;28;20416;-71
2022/12/07 12:29:39;;;;;;;4.97;1.73;;;6.40;99.90;;;;;;5070776;28;20087;-69
2022/12/07 12:32:18;;;;;;;6.30;1.73;;;6.40;99.90;;;;;;5073545;28;20090;-68
2022/12/07 12:34:47;;;;;;;4.35;1.70;;;6.40;99.90;;;;;;5072888;28;20050;-70
2022/12/07 12:37:34;;;;;;;8.15;2.22;;;6.40;99.90;;;;;;5072646;28;20067;-69
2022/12/07 12:40:14;;;;;;;2.30;1.48;;;6.40;99.90;;;;;;5073136;28;20041;-71
2022/12/07 12:42:48;;;;;;;3.42;1.55;;;6.40;99.90;;;;;;5070249;28;20044;-67
2022/12/07 12:45:25;;;;;;;3.70;2.03;;;6.40;99.90;;;;;;5052296;28;20108;-67
2022/12/07 12:48:00;;;;;;;5.22;1.90;;;6.40;99.90;;;;;;5052753;28;20045;-68
2022/12/07 12:50:29;;;;;;;5.53;2.08;;;6.50;99.90;;;;;;5052796;28;20136;-69
2022/12/07 12:53:17;;;;;;;3.92;2.40;;;6.40;99.90;;;;;;5053217;28;20222;-68
2022/12/07 12:55:42;;;;;;;6.97;2.15;;;6.40;99.90;;;;;;5051908;28;20049;-69
2022/12/07 12:58:20;;;;;;;6.60;1.80;;;6.40;99.90;;;;;;5051501;28;20039;-68
2022/12/07 13:00:47;;;;;;;3.22;1.80;;;6.50;99.90;;;;;;5051708;28;20041;-67
2022/12/07 13:03:31;;;;;;;6.15;1.33;;;6.50;99.90;;;;;;5052871;28;20037;-68
2022/12/07 13:06:26;;;;;;;4.00;1.67;;;6.50;99.90;;;;;;5051900;28;20528;-67
2022/12/07 13:08:55;;;;;;;4.68;1.58;;;6.50;99.90;;;;;;5038616;28;20052;-67
2022/12/07 13:11:34;;;;;;;6.40;1.60;;;6.50;99.90;;;;;;5065073;28;20396;-67
2022/12/07 13:14:40;;;;;;;8.15;1.90;;;6.50;99.90;;;;;;5071254;28;20632;-67
2022/12/07 13:17:09;;;;;;;8.93;1.75;;;6.50;99.90;;;;;;5071547;28;20110;-67
2022/12/07 13:19:40;;;;;;;7.65;1.70;;;6.50;99.90;;;;;;5072385;28;20503;-69